Time;durP1;ratioP1;P1;durP2;ratioP2;P2;SDS_P1;SDS_P2;PMS_P1;PMS_P2;Temp;Humidity;BMP_temperature;BMP_pressure;BME280_temperature;BME280_humidity;BME280_pressure;Samples;Min_cycle;Max_cycle;Signal;HPM_P1;HPM_P2
2021/03/14 00:00:46;;;;;;;17.70;12.45;;;;;;;3.80;73.33;98803.30;1783672;78;21123;-40
2021/03/14 00:03:19;;;;;;;17.82;13.00;;;;;;;3.75;73.48;98791.43;1783285;79;21194;-39
2021/03/14 00:05:49;;;;;;;17.77;12.35;;;;;;;3.71;73.61;98791.86;1807356;78;21585;-40
2021/03/14 00:08:18;;;;;;;16.48;11.73;;;;;;;3.30;73.70;98743.61;1747944;80;21379;-40
2021/03/14 00:10:49;;;;;;;16.32;11.80;;;;;;;3.69;73.70;98792.73;1814977;79;21425;-40
2021/03/14 00:13:24;;;;;;;14.75;11.70;;;;;;;3.74;73.53;98791.20;1799658;78;21181;-39
2021/03/14 00:15:51;;;;;;;15.23;12.28;;;;;;;3.73;73.56;98785.60;1786686;78;21122;-40
2021/03/14 00:18:19;;;;;;;16.17;13.05;;;;;;;3.68;73.73;98780.44;1811619;79;21370;-39
2021/03/14 00:20:47;;;;;;;16.52;11.63;;;;;;;3.64;73.75;98779.53;1738322;81;21159;-39
2021/03/14 00:23:15;;;;;;;14.95;12.07;;;;;;;3.65;73.78;98776.30;1738012;80;21214;-39
2021/03/14 00:25:43;;;;;;;15.23;11.12;;;;;;;3.69;73.71;98773.97;1734758;81;21178;-39
2021/03/14 00:28:14;;;;;;;10.58;9.15;;;;;;;3.72;73.62;98769.87;1738853;80;21164;-40
2021/03/14 00:30:43;;;;;;;14.68;11.85;;;;;;;3.70;73.65;98777.44;1733307;81;21182;-39
2021/03/14 00:33:11;;;;;;;16.93;11.53;;;;;;;3.67;73.62;98777.55;1708861;82;22124;-39
2021/03/14 00:35:39;;;;;;;15.08;11.70;;;;;;;3.64;73.63;98778.73;1736533;81;21375;-39
2021/03/14 00:38:07;;;;;;;15.53;11.43;;;;;;;3.62;73.59;98780.43;1761023;81;21448;-39
2021/03/14 00:40:35;;;;;;;14.28;11.15;;;;;;;3.67;73.42;98770.85;1759967;80;21144;-39
2021/03/14 00:43:05;;;;;;;15.18;12.05;;;;;;;3.69;73.33;98773.97;1742771;81;21202;-39
2021/03/14 00:45:37;;;;;;;14.15;11.48;;;;;;;3.68;73.46;98775.08;1738888;80;21147;-40
2021/03/14 00:48:08;;;;;;;15.08;11.53;;;;;;;3.67;73.47;98777.55;1757944;80;21293;-40
2021/03/14 00:50:39;;;;;;;15.20;12.10;;;;;;;3.63;73.57;98769.91;1768652;81;21135;-40
2021/03/14 00:53:08;;;;;;;15.38;11.95;;;;;;;3.63;73.65;98769.91;1739950;80;21040;-40
2021/03/14 00:55:37;;;;;;;14.28;11.12;;;;;;;3.72;73.42;98777.36;1740482;80;21157;-39
2021/03/14 00:58:06;;;;;;;11.47;9.10;;;;;;;3.76;73.29;98775.58;1737277;82;21205;-39
2021/03/14 01:00:36;;;;;;;10.78;8.25;;;;;;;3.76;73.22;98772.11;1756631;80;21193;-39
2021/03/14 01:03:05;;;;;;;12.70;10.20;;;;;;;3.74;73.15;98768.41;1741102;81;21164;-39
2021/03/14 01:05:35;;;;;;;13.58;11.70;;;;;;;3.73;73.14;98768.73;1737694;81;21170;-39
2021/03/14 01:08:04;;;;;;;13.18;10.65;;;;;;;3.77;72.99;98765.09;1752484;80;21211;-39
2021/03/14 01:10:33;;;;;;;14.45;10.72;;;;;;;3.84;72.83;98761.86;1737573;82;21146;-40
2021/03/14 01:13:03;;;;;;;16.45;11.57;;;;;;;3.87;72.74;98762.56;1732684;81;21195;-40
2021/03/14 01:15:31;;;;;;;13.48;11.12;;;;;;;3.85;72.84;98758.86;1733538;81;21182;-39
2021/03/14 01:17:59;;;;;;;16.37;12.13;;;;;;;3.80;72.87;98755.04;1751702;80;21186;-39
2021/03/14 01:20:27;;;;;;;15.18;11.55;;;;;;;3.77;73.04;98750.34;1749321;81;21191;-39
2021/03/14 01:22:55;;;;;;;14.55;11.33;;;;;;;3.74;73.10;98744.28;1739218;82;21377;-40
2021/03/14 01:25:23;;;;;;;14.53;10.72;;;;;;;3.64;73.11;98735.30;1733255;82;21226;-40
2021/03/14 01:27:53;;;;;;;14.45;10.93;;;;;;;3.79;73.04;98747.31;1733401;82;21224;-39
2021/03/14 01:30:21;;;;;;;16.67;11.65;;;;;;;3.84;72.85;98749.80;1732238;82;22143;-40
2021/03/14 01:32:49;;;;;;;16.00;11.63;;;;;;;3.82;72.80;98750.14;1750652;81;21172;-39
2021/03/14 01:35:19;;;;;;;15.28;12.30;;;;;;;3.80;72.76;98744.31;1693891;83;21657;-40
2021/03/14 01:37:48;;;;;;;15.27;11.20;;;;;;;3.77;72.75;98739.62;1779526;80;21197;-39
2021/03/14 01:40:17;;;;;;;14.13;11.50;;;;;;;3.73;72.77;98741.38;1780583;80;21012;-40
2021/03/14 01:42:45;;;;;;;14.50;11.05;;;;;;;3.71;72.86;98734.23;1771045;79;21597;-39
2021/03/14 01:45:17;;;;;;;14.47;11.53;;;;;;;3.77;72.66;98739.62;1756057;80;21166;-39
2021/03/14 01:47:49;;;;;;;15.45;12.30;;;;;;;3.75;72.67;98731.11;1775400;79;21225;-39
2021/03/14 01:50:24;;;;;;;14.40;11.85;;;;;;;3.72;72.71;98735.80;1748217;81;21199;-39
2021/03/14 01:52:53;;;;;;;15.50;12.13;;;;;;;3.66;72.85;98732.30;1747498;81;21019;-39
2021/03/14 01:55:23;;;;;;;14.95;11.65;;;;;;;3.58;72.97;98723.23;1774182;80;22293;-39
2021/03/14 01:57:53;;;;;;;15.15;11.93;;;;;;;3.58;73.04;98732.62;1760469;80;21570;-39
2021/03/14 02:00:24;;;;;;;13.93;11.33;;;;;;;3.63;73.00;98733.73;1746682;80;21154;-40
2021/03/14 02:02:51;;;;;;;14.55;11.30;;;;;;;3.65;72.94;98732.86;1777324;79;21274;-39
2021/03/14 02:05:20;;;;;;;16.30;12.50;;;;;;;3.66;72.88;98734.98;1745787;81;21589;-40
2021/03/14 02:07:51;;;;;;;16.82;12.70;;;;;;;3.62;72.92;98738.88;1695062;83;21114;-39
2021/03/14 02:10:21;;;;;;;;;;;;;;;3.59;72.99;98734.16;1791183;79;21143;-39
2021/03/14 02:13:08;;;;;;;;;;;;;;;3.60;72.99;98729.59;1778318;79;20223;-39
2021/03/14 02:15:39;;;;;;;15.65;11.88;;;;;;;3.61;72.94;98724.46;1738711;81;21256;-39
2021/03/14 02:18:09;;;;;;;16.85;12.28;;;;;;;3.54;73.02;98729.55;1760152;79;21131;-40
2021/03/14 02:20:37;;;;;;;15.63;12.23;;;;;;;3.55;72.96;98731.91;1765019;79;21150;-39
2021/03/14 02:23:44;;;;;;;19.05;13.68;;;;;;;3.54;72.92;98734.36;1713510;82;21652;-39
2021/03/14 02:26:22;;;;;;;17.77;13.45;;;;;;;3.54;72.86;98738.93;1782154;79;21662;-39
2021/03/14 02:28:52;;;;;;;18.75;13.28;;;;;;;3.43;73.06;98731.31;1783496;77;22296;-39
2021/03/14 02:31:23;;;;;;;17.50;13.25;;;;;;;3.40;73.20;98737.86;1800580;78;21143;-39
2021/03/14 02:34:07;;;;;;;18.17;13.05;;;;;;;3.40;73.12;98744.56;1797748;79;21718;-39
2021/03/14 02:36:37;;;;;;;17.25;12.90;;;;;;;3.40;73.20;98752.59;1788828;79;21055;-39
2021/03/14 02:39:09;;;;;;;19.05;14.50;;;;;;;3.34;73.40;98757.95;1746181;81;21444;-39
2021/03/14 02:41:36;;;;;;;20.25;14.38;;;;;;;3.28;73.50;98753.33;1754831;81;21217;-39
2021/03/14 02:44:06;;;;;;;19.20;13.62;;;;;;;3.22;73.63;98757.86;1738232;80;21202;-40
2021/03/14 02:46:34;;;;;;;18.90;13.58;;;;;;;3.20;73.77;98752.03;1756846;79;21139;-40
2021/03/14 02:49:03;;;;;;;17.45;13.38;;;;;;;3.22;73.73;98747.14;1812419;77;21123;-39
2021/03/14 02:51:32;;;;;;;18.30;13.88;;;;;;;3.22;73.73;98741.78;1812524;79;21142;-40
2021/03/14 02:54:00;;;;;;;19.57;14.13;;;;;;;3.20;73.85;98742.10;1799774;79;21346;-39
2021/03/14 02:56:28;;;;;;;20.72;15.58;;;;;;;3.16;74.04;98749.22;1720087;80;21629;-39
2021/03/14 02:58:56;;;;;;;18.48;14.13;;;;;;;3.10;74.30;98741.14;1733425;81;21437;-39
2021/03/14 03:01:24;;;;;;;19.57;13.60;;;;;;;3.09;74.33;98740.94;1755312;81;21177;-39
2021/03/14 03:03:52;;;;;;;17.80;13.88;;;;;;;3.15;74.20;98738.86;1752396;81;21134;-40
2021/03/14 03:06:21;;;;;;;17.60;13.88;;;;;;;3.18;74.18;98735.52;1748556;80;21371;-39
2021/03/14 03:08:49;;;;;;;19.90;14.78;;;;;;;3.14;74.30;98739.41;1789444;78;21148;-40
2021/03/14 03:11:17;;;;;;;19.40;14.93;;;;;;;3.10;74.38;98735.02;1748151;80;21135;-40
2021/03/14 03:13:46;;;;;;;17.80;14.07;;;;;;;3.04;74.49;98736.55;1802695;78;21190;-39
2021/03/14 03:16:16;;;;;;;16.93;13.80;;;;;;;3.02;74.67;98744.11;1728482;80;21505;-39
2021/03/14 03:18:43;;;;;;;;;;;;;;;3.06;74.56;98738.34;1717840;82;21376;-40
2021/03/14 03:21:11;;;;;;;21.68;14.93;;;;;;;3.09;74.44;98736.91;1740827;82;20273;-39
2021/03/14 03:23:40;;;;;;;20.52;15.00;;;;;;;2.97;74.77;98737.61;1699008;83;21148;-39
2021/03/14 03:26:07;;;;;;;19.40;15.32;;;;;;;2.96;74.92;98735.24;1792202;78;22653;-39
2021/03/14 03:28:35;;;;;;;21.27;14.35;;;;;;;2.95;74.99;98733.12;1791538;79;21605;-39
2021/03/14 03:31:03;;;;;;;20.05;14.90;;;;;;;2.95;74.92;98731.78;1772643;79;21270;-39
2021/03/14 03:33:32;;;;;;;23.10;14.55;;;;;;;2.98;74.90;98731.15;1771948;79;21111;-39
2021/03/14 03:36:00;;;;;;;20.70;15.15;;;;;;;3.02;74.83;98722.69;1786348;78;21145;-39
2021/03/14 03:38:34;;;;;;;20.52;15.00;;;;;;;2.99;74.94;98723.91;1795946;79;21171;-39
2021/03/14 03:41:02;;;;;;;23.75;16.42;;;;;;;2.91;75.33;98728.73;1772421;79;21205;-40
2021/03/14 03:43:36;;;;;;;25.72;15.03;;;;;;;2.85;75.33;98732.18;1801329;79;21574;-39
2021/03/14 03:46:08;;;;;;;21.82;15.68;;;;;;;2.86;75.38;98727.58;1729672;80;22606;-40
2021/03/14 03:48:47;;;;;;;24.98;16.90;;;;;;;2.90;75.23;98721.84;1737408;82;21186;-40
2021/03/14 03:51:19;;;;;;;20.62;16.65;;;;;;;2.92;75.32;98726.30;1773382;80;21711;-39
2021/03/14 03:53:48;;;;;;;25.45;17.60;;;;;;;2.88;75.49;98722.70;1782192;79;21593;-40
2021/03/14 03:56:16;;;;;;;21.27;16.80;;;;;;;2.80;75.99;98720.87;1792214;79;21210;-39
2021/03/14 03:58:44;;;;;;;24.32;17.48;;;;;;;2.77;76.36;98720.95;1796634;78;21171;-39
2021/03/14 04:01:12;;;;;;;24.92;19.20;;;;;;;2.81;76.24;98720.52;1788216;79;21215;-39
2021/03/14 04:03:45;;;;;;;25.30;19.02;;;;;;;2.80;76.44;98731.02;1779730;79;21166;-39
2021/03/14 04:06:14;;;;;;;23.77;18.85;;;;;;;2.80;76.63;98728.90;1774061;79;21118;-39
2021/03/14 04:08:43;;;;;;;23.27;17.90;;;;;;;2.81;76.73;98725.88;1773425;79;21522;-39
2021/03/14 04:11:16;;;;;;;24.27;19.00;;;;;;;2.86;76.68;98727.03;1774562;79;21771;-40
2021/03/14 04:13:45;;;;;;;27.32;20.10;;;;;;;2.93;76.63;98730.00;1783259;79;21203;-39
2021/03/14 04:16:14;;;;;;;21.07;15.88;;;;;;;2.91;76.68;98726.84;1790615;78;21194;-39
2021/03/14 04:18:43;;;;;;;28.60;20.20;;;;;;;2.89;76.80;98744.36;1737465;81;21180;-39
2021/03/14 04:21:14;;;;;;;26.07;19.82;;;;;;;2.86;76.90;98727.03;1702025;82;22133;-40
2021/03/14 04:23:45;;;;;;;28.20;20.65;;;;;;;2.88;76.93;98730.73;1754949;80;21203;-39
2021/03/14 04:26:16;;;;;;;;;;;;;;;2.91;76.87;98730.86;1763231;80;21127;-39
2021/03/14 04:28:44;;;;;;;31.10;22.27;;;;;;;2.88;77.17;98738.22;1760730;80;20269;-39
2021/03/14 04:31:12;;;;;;;30.43;21.73;;;;;;;2.76;77.42;98732.00;1743188;80;21163;-39
2021/03/14 04:33:42;;;;;;;30.68;21.52;;;;;;;2.73;77.76;98734.75;1737127;82;21510;-39
2021/03/14 04:36:11;;;;;;;;;;;;;;;2.78;77.74;98733.23;1766989;81;21171;-39
2021/03/14 04:38:42;;;;;;;30.80;22.20;;;;;;;2.84;77.47;98725.25;1750095;81;20515;-40
2021/03/14 04:41:10;;;;;;;32.70;22.70;;;;;;;2.76;77.76;98723.97;1761788;81;21182;-40
2021/03/14 04:43:38;;;;;;;36.55;24.15;;;;;;;2.77;77.87;98724.17;1707329;83;21151;-39
2021/03/14 04:46:07;;;;;;;34.83;24.02;;;;;;;2.82;77.71;98728.00;1755393;81;22285;-40
2021/03/14 04:48:36;;;;;;;36.13;23.55;;;;;;;2.84;77.66;98715.09;1742825;81;21605;-40
2021/03/14 04:51:04;;;;;;;36.23;24.18;;;;;;;2.87;77.53;98705.06;1738588;81;21182;-39
2021/03/14 04:53:33;;;;;;;36.23;24.72;;;;;;;2.87;77.56;98707.19;1684765;82;21203;-39
2021/03/14 04:56:01;;;;;;;39.80;25.20;;;;;;;2.85;77.57;98706.75;1740945;81;21453;-40
2021/03/14 04:58:29;;;;;;;38.75;24.80;;;;;;;2.88;77.53;98703.96;1754421;80;22467;-39
2021/03/14 05:00:59;;;;;;;38.50;26.55;;;;;;;2.94;77.39;98705.35;1758122;81;21150;-39
2021/03/14 05:03:27;;;;;;;38.67;24.92;;;;;;;2.94;77.39;98712.05;1728601;81;21609;-39
2021/03/14 05:05:56;;;;;;;40.40;25.52;;;;;;;2.92;77.37;98711.02;1742374;81;21581;-39
2021/03/14 05:08:24;;;;;;;36.28;23.75;;;;;;;2.91;77.40;98704.09;1746770;81;21171;-39
2021/03/14 05:10:54;;;;;;;42.75;24.65;;;;;;;2.93;77.33;98703.78;1748901;80;21056;-39
2021/03/14 05:13:22;;;;;;;40.70;26.02;;;;;;;2.93;77.34;98708.58;1731597;82;21592;-39
2021/03/14 05:15:51;;;;;;;43.40;24.82;;;;;;;2.91;77.38;98713.46;1725910;81;21151;-39
2021/03/14 05:18:20;;;;;;;38.55;25.05;;;;;;;2.87;77.47;98711.20;1742781;80;21632;-39
2021/03/14 05:20:50;;;;;;;35.80;23.75;;;;;;;2.86;77.51;98727.03;1755373;79;21197;-39
2021/03/14 05:23:17;;;;;;;38.42;24.40;;;;;;;2.91;77.39;98721.49;1753422;79;21209;-39
2021/03/14 05:25:46;;;;;;;41.90;26.57;;;;;;;2.89;77.39;98710.34;1789525;79;21059;-39
2021/03/14 05:28:14;;;;;;;42.48;25.97;;;;;;;2.86;77.44;98727.03;1731913;82;21542;-39
2021/03/14 05:30:43;;;;;;;41.33;26.55;;;;;;;2.85;77.49;98717.45;1730240;80;21169;-39
2021/03/14 05:33:12;;;;;;;40.78;25.57;;;;;;;2.90;77.46;98720.50;1783364;79;21197;-39
2021/03/14 05:35:40;;;;;;;40.35;25.72;;;;;;;2.96;77.24;98720.52;1794777;79;21195;-39
2021/03/14 05:38:08;;;;;;;39.73;26.73;;;;;;;2.96;77.11;98721.30;1793723;78;21174;-39
2021/03/14 05:40:36;;;;;;;43.55;26.42;;;;;;;2.94;77.12;98715.51;1795441;79;21118;-39
2021/03/14 05:43:05;;;;;;;36.83;23.55;;;;;;;2.94;77.10;98717.40;1780878;80;21185;-39
2021/03/14 05:45:33;;;;;;;36.88;24.60;;;;;;;2.97;76.88;98715.40;1794846;79;21340;-39
2021/03/14 05:48:01;;;;;;;39.08;26.50;;;;;;;3.00;76.67;98701.38;1796274;78;22137;-39
2021/03/14 05:50:29;;;;;;;38.48;26.20;;;;;;;2.91;76.79;98697.95;1797336;79;21997;-39
2021/03/14 05:52:59;;;;;;;35.88;24.25;;;;;;;2.88;76.88;98700.73;1793131;78;21142;-39
2021/03/14 05:55:27;;;;;;;37.63;22.97;;;;;;;2.86;76.91;98701.60;1781216;80;21146;-39
2021/03/14 05:57:55;;;;;;;30.32;21.10;;;;;;;2.92;76.75;98696.30;1781191;79;21847;-39
2021/03/14 06:00:28;;;;;;;27.55;20.20;;;;;;;2.94;76.70;98703.46;1780853;80;21281;-39
2021/03/14 06:02:59;;;;;;;27.58;19.90;;;;;;;2.92;76.65;98698.97;1780983;79;21198;-39
2021/03/14 06:05:29;;;;;;;24.75;17.65;;;;;;;2.92;76.59;98692.28;1786150;80;21162;-39
2021/03/14 06:07:58;;;;;;;22.80;16.65;;;;;;;2.95;76.53;98694.30;1790327;79;21171;-40
2021/03/14 06:10:28;;;;;;;21.50;16.95;;;;;;;3.03;76.35;98696.16;1795330;79;21158;-40
2021/03/14 06:12:56;;;;;;;22.20;16.90;;;;;;;3.09;76.04;98703.99;1784432;79;22102;-39
2021/03/14 06:15:24;;;;;;;23.40;17.50;;;;;;;3.06;76.05;98707.54;1785888;79;21154;-39
2021/03/14 06:17:51;;;;;;;19.67;15.68;;;;;;;2.78;76.09;98666.31;1804399;79;21169;-39
2021/03/14 06:20:35;;;;;;;20.52;15.10;;;;;;;3.07;76.03;98706.98;1798671;78;21170;-39
2021/03/14 06:23:10;;;;;;;18.67;14.75;;;;;;;3.12;75.81;98708.14;1807811;78;21126;-40
2021/03/14 06:25:40;;;;;;;20.17;15.88;;;;;;;3.13;75.71;98716.95;1772214;80;21218;-39
2021/03/14 06:28:08;;;;;;;23.55;15.35;;;;;;;3.10;75.81;98721.64;1772457;80;21597;-40
2021/03/14 06:30:36;;;;;;;19.95;14.83;;;;;;;3.09;75.93;98722.73;1805573;78;21182;-39
2021/03/14 06:33:16;;;;;;;21.33;16.00;;;;;;;3.13;75.91;98727.67;1794688;78;21165;-39
2021/03/14 06:35:54;;;;;;;22.37;16.15;;;;;;;3.23;75.68;98726.73;1791016;80;21159;-39
2021/03/14 06:38:32;;;;;;;20.77;15.43;;;;;;;3.29;75.38;98745.50;1726333;83;21416;-39
2021/03/14 06:41:08;;;;;;;20.23;15.60;;;;;;;3.30;75.54;98743.61;1743613;81;21067;-39
2021/03/14 06:43:46;;;;;;;24.02;16.23;;;;;;;3.32;75.34;98748.09;1756637;81;21157;-40
2021/03/14 06:46:30;;;;;;;19.92;14.47;;;;;;;3.31;75.27;98738.48;1740782;81;21160;-40
2021/03/14 06:49:14;;;;;;;19.60;15.25;;;;;;;3.38;75.07;98750.82;1802196;77;21176;-40
2021/03/14 06:51:45;;;;;;;21.15;14.58;;;;;;;3.40;75.10;98743.22;1798544;78;22117;-39
2021/03/14 06:54:35;;;;;;;20.72;15.32;;;;;;;3.42;75.10;98742.36;1802874;78;21047;-39
2021/03/14 06:57:11;;;;;;;17.35;13.30;;;;;;;3.45;74.73;98761.23;1821181;78;21043;-39
2021/03/14 06:59:54;;;;;;;18.98;14.40;;;;;;;3.48;74.69;98763.28;1815332;78;20987;-40
2021/03/14 07:02:29;;;;;;;17.90;13.68;;;;;;;3.55;74.51;98760.61;1744474;80;21155;-39
2021/03/14 07:04:59;;;;;;;20.88;15.28;;;;;;;3.53;74.48;98759.61;1780998;80;21392;-39
2021/03/14 07:07:33;;;;;;;19.25;15.13;;;;;;;3.49;74.42;98761.36;1728258;81;21767;-39
2021/03/14 07:10:06;;;;;;;20.12;14.95;;;;;;;3.54;74.48;98761.16;1751754;80;21048;-39
2021/03/14 07:12:38;;;;;;;19.42;15.25;;;;;;;3.63;74.18;98754.41;1802080;78;21181;-39
2021/03/14 07:15:19;;;;;;;21.50;17.50;;;;;;;3.63;74.03;98757.85;1797546;78;21173;-39
2021/03/14 07:17:53;;;;;;;20.15;15.15;;;;;;;3.63;74.04;98752.48;1804292;77;21240;-39
2021/03/14 07:20:27;;;;;;;18.85;14.60;;;;;;;3.62;74.12;98760.33;1798681;78;21612;-39
2021/03/14 07:23:07;;;;;;;18.55;14.18;;;;;;;3.66;73.88;98769.28;1794939;78;21021;-40
2021/03/14 07:25:43;;;;;;;19.27;14.70;;;;;;;3.74;73.62;98757.69;1780342;80;21193;-39
2021/03/14 07:28:20;;;;;;;19.75;14.83;;;;;;;3.80;73.71;98760.41;1806825;78;22787;-39
2021/03/14 07:30:48;;;;;;;21.10;15.68;;;;;;;3.78;73.72;98758.59;1809109;78;21011;-39
2021/03/14 07:33:16;;;;;;;19.77;14.85;;;;;;;3.77;73.55;98755.70;1816847;78;21197;-39
2021/03/14 07:36:56;;;;;;;18.90;15.08;;;;;;;4.05;73.32;98759.15;1820613;77;22703;-39
2021/03/14 07:39:24;;;;;;;21.17;15.78;;;;;;;4.03;73.19;98763.50;1795413;78;20974;-39
2021/03/14 07:41:52;;;;;;;20.17;14.40;;;;;;;3.71;72.91;98709.31;1796478;79;22280;-39
2021/03/14 07:44:24;;;;;;;16.82;13.22;;;;;;;4.06;72.83;98756.70;1808302;79;20941;-39
2021/03/14 07:46:52;;;;;;;;;;;;;;;4.08;72.84;98750.43;1788926;79;21059;-39
2021/03/14 07:49:24;;;;;;;19.05;14.00;;;;;;;4.15;72.75;98757.39;1797816;79;20189;-39
2021/03/14 07:52:03;;;;;;;19.42;14.50;;;;;;;4.11;72.88;98747.89;1809477;79;21055;-39
2021/03/14 07:54:47;;;;;;;;;;;;;;;4.17;72.79;98761.30;1791930;78;21368;-39
2021/03/14 07:57:17;;;;;;;20.95;14.58;;;;;;;4.21;72.55;98750.13;1783695;79;20784;-39
2021/03/14 07:59:46;;;;;;;21.42;13.98;;;;;;;4.15;72.62;98741.30;1719073;80;21565;-39
2021/03/14 08:02:23;;;;;;;16.25;13.13;;;;;;;4.25;72.17;98738.98;1751680;80;21073;-39
2021/03/14 08:04:57;;;;;;;17.52;13.93;;;;;;;4.35;71.68;98747.16;1740855;80;21660;-40
2021/03/14 08:07:39;;;;;;;17.87;13.40;;;;;;;4.38;71.63;98764.72;1769547;80;22278;-39
2021/03/14 08:10:10;;;;;;;17.60;13.28;;;;;;;4.42;71.58;98743.36;1754886;80;21455;-39
2021/03/14 08:12:40;;;;;;;18.57;13.50;;;;;;;4.43;71.67;98748.95;1726613;82;21483;-39
2021/03/14 08:15:22;;;;;;;15.50;12.58;;;;;;;4.49;71.71;98738.79;1773925;80;21577;-40
2021/03/14 08:17:55;;;;;;;15.95;13.03;;;;;;;4.68;71.53;98739.81;1743302;82;21572;-39
2021/03/14 08:20:42;;;;;;;15.85;12.45;;;;;;;4.84;70.48;98747.98;1758493;80;21203;-40
2021/03/14 08:23:17;;;;;;;18.20;13.68;;;;;;;4.86;69.89;98747.63;1766482;80;21663;-39
2021/03/14 08:25:48;;;;;;;18.52;13.80;;;;;;;4.89;70.29;98745.64;1708833;82;21369;-39
2021/03/14 08:28:34;;;;;;;16.32;12.23;;;;;;;4.54;69.97;98696.41;1744532;81;21150;-39
2021/03/14 08:31:15;;;;;;;16.60;12.98;;;;;;;5.08;69.86;98761.97;1812306;78;22902;-40
2021/03/14 08:33:46;;;;;;;13.65;11.48;;;;;;;5.16;69.39;98763.73;1796011;79;20992;-40
2021/03/14 08:36:42;;;;;;;13.72;11.43;;;;;;;5.24;69.05;98770.88;1825348;78;22724;-40
2021/03/14 08:39:30;;;;;;;14.87;12.37;;;;;;;5.17;68.95;98768.78;1797256;79;21178;-39
2021/03/14 08:42:08;;;;;;;15.15;11.12;;;;;;;5.08;69.07;98762.72;1868091;76;22311;-40
2021/03/14 08:44:46;;;;;;;14.68;11.25;;;;;;;4.99;69.34;98770.67;1832340;77;21034;-39
2021/03/14 08:47:22;;;;;;;14.53;11.50;;;;;;;4.94;69.44;98757.50;1822583;77;21147;-39
2021/03/14 08:50:07;;;;;;;15.75;11.93;;;;;;;4.95;69.15;98759.04;1838919;77;21968;-39
2021/03/14 08:52:55;;;;;;;13.50;10.70;;;;;;;4.99;69.24;98766.64;1839230;77;23415;-39
2021/03/14 08:55:27;;;;;;;13.88;10.00;;;;;;;4.95;69.04;98769.78;1750827;80;21055;-40
2021/03/14 08:57:55;;;;;;;13.70;10.25;;;;;;;4.95;69.16;98757.70;1783654;79;22605;-39
2021/03/14 09:00:24;;;;;;;12.05;10.38;;;;;;;4.93;68.68;98752.69;1809573;79;20972;-39
2021/03/14 09:02:54;;;;;;;13.30;11.03;;;;;;;4.94;68.71;98756.16;1715982;81;21618;-39
2021/03/14 09:05:27;;;;;;;12.80;10.60;;;;;;;5.01;68.67;98739.69;1749756;81;21018;-40
2021/03/14 09:08:01;;;;;;;11.85;9.93;;;;;;;5.00;68.44;98745.39;1691421;81;21040;-40
2021/03/14 09:10:35;;;;;;;13.83;10.88;;;;;;;5.09;68.66;98740.67;1722821;83;21156;-40
2021/03/14 09:13:05;;;;;;;14.03;11.45;;;;;;;5.21;68.49;98729.92;1737347;80;21080;-40
2021/03/14 09:15:35;;;;;;;13.48;10.85;;;;;;;5.35;68.12;98743.77;1742823;81;21035;-40
2021/03/14 09:18:13;;;;;;;12.65;10.28;;;;;;;5.47;67.39;98726.25;1748688;81;21167;-40
2021/03/14 09:20:43;;;;;;;12.35;10.30;;;;;;;5.63;66.85;98730.36;1742803;81;21625;-39
2021/03/14 09:23:13;;;;;;;13.10;10.03;;;;;;;5.69;66.72;98728.44;1744519;81;22082;-39
2021/03/14 09:25:54;;;;;;;10.95;9.45;;;;;;;5.79;66.83;98721.00;1742496;81;21210;-40
2021/03/14 09:28:23;;;;;;;12.25;9.80;;;;;;;6.00;66.49;98721.62;1747501;82;21044;-39
2021/03/14 09:30:53;;;;;;;12.03;10.43;;;;;;;6.16;66.14;98714.33;1705523;82;21186;-40
2021/03/14 09:33:22;;;;;;;11.22;9.08;;;;;;;6.26;65.47;98719.20;1742676;82;21170;-40
2021/03/14 09:36:06;;;;;;;11.15;9.33;;;;;;;6.31;65.13;98717.61;1740159;82;21143;-40
2021/03/14 09:38:58;;;;;;;11.60;10.08;;;;;;;6.37;65.12;98714.88;1859498;75;22637;-40
2021/03/14 09:41:44;;;;;;;11.20;9.23;;;;;;;6.44;65.47;98712.91;1789480;77;22113;-40
2021/03/14 09:44:34;;;;;;;11.22;9.48;;;;;;;6.67;64.63;98719.83;1806675;78;22764;-40
2021/03/14 09:47:04;;;;;;;12.73;10.23;;;;;;;6.73;64.10;98718.44;1781511;79;26401;-40
2021/03/14 09:50:02;;;;;;;10.60;8.83;;;;;;;6.85;63.79;98707.55;1865659;76;22696;-40
2021/03/14 09:52:33;;;;;;;12.45;9.53;;;;;;;6.82;63.67;98724.42;1816474;78;21019;-40
2021/03/14 09:55:05;;;;;;;9.98;8.63;;;;;;;6.75;63.76;98718.30;1798938;78;21415;-40
2021/03/14 09:57:34;;;;;;;9.73;8.70;;;;;;;6.67;63.84;98709.06;1778717;78;21612;-40
2021/03/14 10:00:06;;;;;;;11.12;8.93;;;;;;;6.60;63.98;98718.30;1759831;78;21013;-40
2021/03/14 10:02:43;;;;;;;11.50;9.33;;;;;;;6.50;64.24;98717.70;1803833;78;20984;-40
2021/03/14 10:05:17;;;;;;;12.10;9.33;;;;;;;6.42;64.79;98721.35;1785705;78;21293;-40
2021/03/14 10:07:51;;;;;;;12.73;9.95;;;;;;;6.33;65.11;98709.98;1768408;78;21369;-40
2021/03/14 10:10:20;;;;;;;11.43;8.60;;;;;;;6.26;65.16;98709.00;1808234;78;21612;-40
2021/03/14 10:12:52;;;;;;;9.38;8.10;;;;;;;6.21;65.54;98702.53;1806613;78;21019;-40
2021/03/14 10:15:23;;;;;;;9.63;8.30;;;;;;;6.19;65.65;98697.52;1789473;80;21102;-39
2021/03/14 10:17:53;;;;;;;8.83;7.78;;;;;;;6.20;65.51;98692.88;1760207;78;21177;-40
2021/03/14 10:20:22;;;;;;;10.15;8.93;;;;;;;6.16;65.71;98689.33;1769529;80;21371;-40
2021/03/14 10:23:05;;;;;;;10.15;8.85;;;;;;;6.08;65.94;98684.34;1767725;80;21182;-40
2021/03/14 10:25:39;;;;;;;9.98;8.80;;;;;;;6.06;66.33;98683.89;1752654;80;21170;-40
2021/03/14 10:28:20;;;;;;;10.43;8.55;;;;;;;6.04;66.35;98684.81;1761652;80;22187;-40
2021/03/14 10:31:06;;;;;;;9.80;8.45;;;;;;;6.08;66.44;98678.95;1769568;80;21122;-40
2021/03/14 10:33:39;;;;;;;10.63;8.20;;;;;;;6.22;66.51;98677.97;1792767;80;21321;-40
2021/03/14 10:36:10;;;;;;;9.85;8.80;;;;;;;6.35;65.88;98677.30;1793254;80;21605;-40
2021/03/14 10:38:52;;;;;;;12.25;8.83;;;;;;;6.37;65.33;98676.41;1779624;80;21142;-40
2021/03/14 10:41:28;;;;;;;10.28;9.05;;;;;;;6.32;65.52;98672.06;1776277;80;21141;-40
2021/03/14 10:44:04;;;;;;;11.22;9.60;;;;;;;6.23;65.62;98671.46;1772639;79;21173;-40
2021/03/14 10:46:50;;;;;;;11.88;9.25;;;;;;;6.16;66.19;98668.58;1772906;79;21224;-40
2021/03/14 10:49:28;;;;;;;10.35;8.55;;;;;;;6.16;66.50;98656.47;1791320;79;21047;-39
2021/03/14 10:52:00;;;;;;;9.40;8.03;;;;;;;6.27;66.57;98653.48;1792885;80;21051;-39
2021/03/14 10:54:32;;;;;;;;;;;;;;;6.37;65.57;98640.84;1761849;80;21201;-39
2021/03/14 10:57:03;;;;;;;10.68;9.40;;;;;;;6.42;65.21;98635.20;1788302;79;20276;-39
2021/03/14 10:59:32;;;;;;;10.68;9.58;;;;;;;6.32;65.57;98637.08;1746623;80;22120;-39
2021/03/14 11:02:35;;;;;;;10.82;9.58;;;;;;;6.31;65.84;98631.47;1775315;79;21452;-39
2021/03/14 11:04:58;;;;;;;10.55;9.18;;;;;;;6.33;66.10;98636.51;1778145;80;21082;-39
2021/03/14 11:07:32;;;;;;;10.78;8.63;;;;;;;6.37;65.90;98634.12;1762721;79;21181;-39
2021/03/14 11:10:24;;;;;;;11.03;9.50;;;;;;;6.48;65.41;98634.38;1762473;80;21106;-39
2021/03/14 11:12:57;;;;;;;11.83;9.65;;;;;;;6.51;65.65;98635.79;1767968;80;21429;-39
2021/03/14 11:15:33;;;;;;;13.30;10.23;;;;;;;6.53;65.59;98633.52;1776255;80;21181;-39
2021/03/14 11:18:21;;;;;;;12.20;10.08;;;;;;;6.52;65.38;98631.19;1745832;81;21714;-39
2021/03/14 11:20:51;;;;;;;12.25;10.53;;;;;;;6.50;65.84;98618.06;1764127;80;21165;-39
2021/03/14 11:23:19;;;;;;;12.33;10.13;;;;;;;6.52;66.09;98621.20;1786478;80;21182;-39
2021/03/14 11:25:47;;;;;;;11.65;9.63;;;;;;;6.58;65.96;98616.89;1774218;80;21293;-39
2021/03/14 11:28:16;;;;;;;10.93;9.80;;;;;;;6.71;65.66;98611.60;1792523;80;21190;-39
2021/03/14 11:30:45;;;;;;;12.03;10.38;;;;;;;6.84;64.98;98613.03;1792627;80;21086;-39
2021/03/14 11:33:13;;;;;;;13.45;11.63;;;;;;;6.93;64.63;98613.61;1772949;80;21173;-39
2021/03/14 11:35:46;;;;;;;13.48;11.38;;;;;;;6.97;64.08;98618.53;1761887;80;21134;-39
2021/03/14 11:38:33;;;;;;;15.03;13.43;;;;;;;7.02;64.29;98612.84;1817363;78;27885;-39
2021/03/14 11:41:03;;;;;;;13.58;11.35;;;;;;;7.36;63.40;98617.94;1805112;79;24728;-40
2021/03/14 11:43:34;;;;;;;14.60;12.15;;;;;;;7.49;63.00;98609.16;1812898;79;21376;-40
2021/03/14 11:46:15;;;;;;;12.13;10.53;;;;;;;7.39;63.71;98607.25;1858439;76;22687;-39
2021/03/14 11:48:46;;;;;;;13.20;10.75;;;;;;;7.34;63.17;98608.10;1839940;77;20999;-39
2021/03/14 11:51:16;;;;;;;13.43;11.03;;;;;;;7.29;62.96;98607.82;1859477;77;21265;-39
2021/03/14 11:53:45;;;;;;;15.78;12.37;;;;;;;7.25;63.06;98603.50;1859417;77;21035;-39